createdAt,value
2019-01-11T00:02:26.745Z,2.20
2019-01-11T00:07:29.663Z,2.20
2019-01-11T00:12:33.919Z,2.20
2019-01-11T00:17:36.797Z,2.10
2019-01-11T00:22:42.904Z,2.30
2019-01-11T00:27:45.754Z,2.20
2019-01-11T00:32:48.656Z,2.20
2019-01-11T00:37:51.524Z,2.30
2019-01-11T00:42:54.360Z,2.30
2019-01-11T00:47:57.263Z,2.40
2019-01-11T00:53:00.195Z,2.40
2019-01-11T00:58:03.194Z,2.40
2019-01-11T01:03:06.138Z,2.40
2019-01-11T01:08:09.013Z,2.50
2019-01-11T01:13:11.947Z,2.50
2019-01-11T01:18:14.819Z,2.50
2019-01-11T01:23:17.750Z,2.40
2019-01-11T01:28:20.646Z,2.50
2019-01-11T01:33:23.500Z,2.30
2019-01-11T01:38:26.306Z,2.50
2019-01-11T01:43:30.210Z,2.50
2019-01-11T01:48:33.077Z,2.50
2019-01-11T01:53:36.090Z,2.50
2019-01-11T01:58:41.684Z,2.50
2019-01-11T02:03:44.541Z,2.50
2019-01-11T02:08:47.365Z,2.50
2019-01-11T02:13:50.282Z,2.50
2019-01-11T02:18:53.145Z,2.50
2019-01-11T02:23:56.003Z,2.50
2019-01-11T02:28:58.866Z,2.50
2019-01-11T02:34:01.724Z,2.60
2019-01-11T02:39:19.934Z,2.60
2019-01-11T02:44:23.544Z,2.70
2019-01-11T02:49:26.413Z,2.70
2019-01-11T02:54:29.299Z,2.80
2019-01-11T02:59:32.148Z,2.90
2019-01-11T03:04:35.008Z,3.00
2019-01-11T03:09:37.875Z,3.00
2019-01-11T03:14:41.498Z,3.10
2019-01-11T03:19:47.925Z,3.10
2019-01-11T03:24:52.263Z,3.10
2019-01-11T03:29:55.089Z,3.00
2019-01-11T03:35:17.703Z,3.10
2019-01-11T03:40:24.483Z,3.10
2019-01-11T03:45:27.461Z,3.10
2019-01-11T03:50:30.343Z,3.10
2019-01-11T03:55:33.222Z,3.00
2019-01-11T04:00:36.154Z,3.10
2019-01-11T04:05:45.127Z,3.10
2019-01-11T04:10:47.976Z,3.10
2019-01-11T04:15:51.391Z,3.10
2019-01-11T04:20:54.466Z,3.10
2019-01-11T04:25:57.349Z,3.20
2019-01-11T04:31:03.374Z,3.20
2019-01-11T04:36:08.975Z,3.20
2019-01-11T04:41:11.875Z,3.30
2019-01-11T04:46:14.725Z,3.30
2019-01-11T04:51:17.587Z,3.40
2019-01-11T04:56:23.662Z,3.40
2019-01-11T05:01:29.576Z,3.50
2019-01-11T05:06:32.471Z,3.50
2019-01-11T05:11:35.310Z,3.50
2019-01-11T05:16:48.664Z,3.50
2019-01-11T05:21:42.840Z,3.60
2019-01-11T05:26:45.713Z,3.70
2019-01-11T05:31:48.844Z,3.70
2019-01-11T05:36:51.861Z,3.70
2019-01-11T05:41:54.744Z,3.80
2019-01-11T05:46:57.580Z,3.80
2019-01-11T05:52:00.457Z,3.80
2019-01-11T05:57:03.443Z,3.90
2019-01-11T06:02:06.293Z,4.00
2019-01-11T06:07:37.642Z,4.00
2019-01-11T06:12:40.534Z,4.00
2019-01-11T06:17:45.140Z,4.10
2019-01-11T06:22:48.007Z,4.10
2019-01-11T06:27:50.911Z,4.20
2019-01-11T06:32:53.768Z,4.30
2019-01-11T06:37:56.938Z,4.30
2019-01-11T06:43:03.509Z,4.30
2019-01-11T06:48:18.756Z,4.30
2019-01-11T06:53:21.589Z,4.40
2019-01-11T06:58:33.781Z,4.40
2019-01-11T07:03:41.462Z,4.50
2019-01-11T07:08:44.346Z,4.50
2019-01-11T07:13:48.403Z,4.50
2019-01-11T07:18:51.272Z,4.60
2019-01-11T07:23:54.707Z,4.60
2019-01-11T07:28:57.603Z,4.80
2019-01-11T07:34:00.537Z,4.90
2019-01-11T07:39:12.666Z,5.00
2019-01-11T07:44:17.716Z,5.00
2019-01-11T07:49:23.298Z,5.10
2019-01-11T07:54:31.362Z,5.10
2019-01-11T07:59:34.206Z,5.20
2019-01-11T08:04:37.062Z,5.20
2019-01-11T08:09:43.079Z,5.20
2019-01-11T08:14:46.028Z,5.30
2019-01-11T08:19:57.787Z,5.30
2019-01-11T08:25:02.859Z,5.40
2019-01-11T08:30:11.405Z,5.40
2019-01-11T08:35:15.027Z,5.50
2019-01-11T08:40:17.859Z,5.60
2019-01-11T08:45:20.788Z,5.70
2019-01-11T08:50:34.146Z,5.70
2019-01-11T08:55:29.288Z,5.90
2019-01-11T09:00:32.216Z,6.00
2019-01-11T09:05:35.170Z,6.00
2019-01-11T09:10:42.259Z,6.10
2019-01-11T09:15:45.470Z,6.20
2019-01-11T09:20:48.305Z,6.30
2019-01-11T09:25:51.260Z,6.30
2019-01-11T09:30:54.168Z,6.40
2019-01-11T09:35:59.800Z,6.50
2019-01-11T09:41:06.254Z,6.40
2019-01-11T09:46:09.390Z,6.50
2019-01-11T09:51:15.645Z,6.50
2019-01-11T09:56:17.009Z,6.60
2019-01-11T10:01:19.884Z,6.60
2019-01-11T10:06:22.808Z,6.60
2019-01-11T10:11:25.753Z,6.60
2019-01-11T10:16:29.364Z,6.60
2019-01-11T10:21:32.467Z,6.70
2019-01-11T10:26:35.340Z,6.60
2019-01-11T10:31:38.206Z,6.70
2019-01-11T10:36:41.068Z,6.80
2019-01-11T10:41:43.968Z,6.80
2019-01-11T10:46:49.191Z,6.80
2019-01-11T10:51:52.377Z,6.80
2019-01-11T10:56:58.025Z,6.80
2019-01-11T11:02:05.181Z,6.80
2019-01-11T11:07:07.569Z,7.00
2019-01-11T11:12:13.177Z,7.00
2019-01-11T11:17:16.099Z,7.00
2019-01-11T11:22:22.024Z,7.10
2019-01-11T11:27:24.892Z,7.20
2019-01-11T11:32:53.586Z,7.10
2019-01-11T11:37:56.610Z,7.10
2019-01-11T11:42:59.500Z,7.10
2019-01-11T11:48:03.788Z,7.10
2019-01-11T11:53:06.811Z,7.10
2019-01-11T11:58:12.729Z,7.10
2019-01-11T12:03:18.708Z,7.10
2019-01-11T12:08:21.658Z,7.10
2019-01-11T12:13:24.498Z,7.10
2019-01-11T12:18:27.416Z,7.10
2019-01-11T12:23:33.701Z,7.10
2019-01-11T12:28:36.724Z,7.10
2019-01-11T12:33:39.583Z,7.10
2019-01-11T12:38:42.439Z,7.10
2019-01-11T12:43:49.847Z,7.10
2019-01-11T12:48:52.924Z,7.20
2019-01-11T12:53:55.817Z,7.20
2019-01-11T12:58:59.240Z,7.30
2019-01-11T13:04:02.373Z,7.30
2019-01-11T13:09:07.528Z,7.30
2019-01-11T13:14:10.361Z,7.30
2019-01-11T13:19:13.654Z,7.40
2019-01-11T13:24:16.623Z,7.30
2019-01-11T13:29:19.469Z,7.30
2019-01-11T13:34:23.997Z,7.30
2019-01-11T13:39:29.542Z,7.30
2019-01-11T13:44:32.415Z,7.40
2019-01-11T13:49:35.345Z,7.40
2019-01-11T13:54:38.250Z,7.40
2019-01-11T13:59:41.599Z,7.40
2019-01-11T14:04:44.911Z,7.50
2019-01-11T14:09:47.703Z,7.40
2019-01-11T14:14:50.607Z,7.40
2019-01-11T14:19:53.648Z,7.40
2019-01-11T14:24:59.500Z,7.40
2019-01-11T14:30:02.519Z,7.30
2019-01-11T14:35:06.425Z,7.30
2019-01-11T14:40:11.325Z,7.30
2019-01-11T14:45:15.343Z,7.30
2019-01-11T14:50:18.936Z,7.30
2019-01-11T14:55:21.883Z,7.30
2019-01-11T15:00:28.492Z,7.20
2019-01-11T15:05:34.777Z,7.20
2019-01-11T15:10:37.989Z,7.20
2019-01-11T15:15:42.145Z,7.20
2019-01-11T15:20:45.034Z,7.10
2019-01-11T15:25:50.925Z,7.10
2019-01-11T15:30:54.166Z,7.10
2019-01-11T15:35:57.400Z,7.00
2019-01-11T15:41:00.722Z,7.00
2019-01-11T15:46:05.867Z,7.00
2019-01-11T15:51:09.277Z,7.00
2019-01-11T15:56:24.419Z,7.00
2019-01-11T16:01:30.673Z,7.00
2019-01-11T16:06:35.304Z,7.00
2019-01-11T16:11:49.764Z,7.00
2019-01-11T16:17:02.354Z,7.00
2019-01-11T16:22:27.643Z,7.00
2019-01-11T16:27:31.228Z,7.00
2019-01-11T16:32:34.511Z,7.00
2019-01-11T16:37:40.698Z,7.00
2019-01-11T16:42:46.857Z,7.00
2019-01-11T16:47:50.478Z,7.00
2019-01-11T16:52:53.918Z,7.00
2019-01-11T16:57:57.219Z,7.00
2019-01-11T17:03:00.388Z,6.90
2019-01-11T17:08:03.765Z,7.00
2019-01-11T17:13:07.133Z,7.00
2019-01-11T17:18:10.749Z,6.90
2019-01-11T17:23:14.296Z,6.90
2019-01-11T17:28:18.087Z,6.90
2019-01-11T17:33:21.636Z,6.90
2019-01-11T17:38:24.772Z,6.80
2019-01-11T17:43:29.383Z,6.80
2019-01-11T17:48:32.866Z,6.80
2019-01-11T17:53:36.123Z,6.80
2019-01-11T17:58:39.611Z,6.80
2019-01-11T18:03:43.067Z,6.80
2019-01-11T18:08:49.657Z,6.80
2019-01-11T18:13:56.171Z,6.70
2019-01-11T18:18:59.444Z,6.80
2019-01-11T18:24:02.931Z,6.70
2019-01-11T18:29:06.226Z,6.70
2019-01-11T18:34:11.933Z,6.70
2019-01-11T18:39:19.640Z,6.70
2019-01-11T18:44:23.175Z,6.70
2019-01-11T18:49:26.411Z,6.70
2019-01-11T18:54:35.915Z,6.70
2019-01-11T18:59:39.353Z,6.70
2019-01-11T19:05:03.891Z,6.60
2019-01-11T19:10:10.609Z,6.70
2019-01-11T19:15:16.451Z,6.60
2019-01-11T19:20:24.891Z,6.60
2019-01-11T19:25:28.760Z,6.50
2019-01-11T19:30:32.193Z,6.40
2019-01-11T19:35:39.676Z,6.40
2019-01-11T19:40:47.182Z,6.40
2019-01-11T19:45:54.605Z,6.30
2019-01-11T19:50:59.803Z,6.40
2019-01-11T19:56:03.737Z,6.40
2019-01-11T20:01:11.801Z,6.40
2019-01-11T20:06:17.852Z,6.30
2019-01-11T20:11:21.366Z,6.30
2019-01-11T20:16:25.259Z,6.30
2019-01-11T20:21:36.838Z,6.30
2019-01-11T20:26:42.633Z,6.30
2019-01-11T20:31:46.247Z,6.30
2019-01-11T20:37:01.004Z,6.20
2019-01-11T20:42:04.544Z,6.20
2019-01-11T20:47:09.904Z,6.20
2019-01-11T20:52:16.221Z,6.10
2019-01-11T20:57:19.640Z,6.20
2019-01-11T21:02:23.684Z,6.10
2019-01-11T21:07:27.100Z,6.10
2019-01-11T21:12:30.384Z,6.10
2019-01-11T21:17:33.956Z,6.10
2019-01-11T21:22:37.417Z,6.10
2019-01-11T21:27:40.984Z,6.10
2019-01-11T21:32:44.645Z,6.20
2019-01-11T21:37:49.658Z,6.10
2019-01-11T21:42:58.946Z,6.20
2019-01-11T21:48:02.518Z,6.10
2019-01-11T21:53:12.079Z,6.10
2019-01-11T21:58:15.618Z,6.10
2019-01-11T22:03:20.695Z,6.00
2019-01-11T22:08:24.469Z,6.00
2019-01-11T22:13:30.747Z,6.00
2019-01-11T22:18:34.105Z,6.00
2019-01-11T22:23:37.676Z,6.00
2019-01-11T22:28:43.185Z,6.00
2019-01-11T22:34:04.404Z,6.00
2019-01-11T22:39:08.078Z,6.10
2019-01-11T22:44:12.953Z,6.00
2019-01-11T22:49:17.420Z,6.00
2019-01-11T22:54:20.607Z,6.10
2019-01-11T22:59:26.954Z,6.00
2019-01-11T23:04:30.575Z,6.10
2019-01-11T23:09:48.220Z,6.10
2019-01-11T23:14:54.734Z,6.00
2019-01-11T23:19:58.356Z,6.10
2019-01-11T23:25:01.807Z,6.10
2019-01-11T23:30:08.526Z,6.10
2019-01-11T23:35:14.909Z,6.10
2019-01-11T23:40:18.223Z,6.20
2019-01-11T23:45:21.662Z,6.20
2019-01-11T23:50:27.953Z,6.20
2019-01-11T23:55:31.263Z,6.20
